UNR Ag. Experiment Farm, Sparks, Nevada Weather observations

Data are for 10 minute period ending at time listed.
 Day   Time   Solar   Ave.   Ave.  Ave.  Vector  Max.   Baro.   Total    
  of    of     Rad.   Air    Rel.  Wind   Wind   Wind  Press.  Precip.   
Year   Day            Temp.  Hum.  Speed  Dir.   Gust                    
2016   (PST)  Kw/m2    F      %     mph   deg.    mph    mb.     in.     
-------------------------------------------------------------------------
 209   10:30   0.75   84.4    24    0.4   320     1.5   868.7    0.00 
 209   10:40   0.76   86.9    19    0.2    36     1.4   868.6    0.00 
 209   10:50   0.78   88.5    18    0.7    53     2.3   868.4    0.00 
 209   11:00   0.79   88.8    20    0.9    41     2.8   868.3    0.00 
 209   11:10   0.80   89.0    16    0.9    24     2.6   868.2    0.00 
 209   11:20   0.81   91.7    18    0.5   310     2.2   868.0    0.00 
 209   11:30   0.82   89.5    16    2.9   340     4.4   867.9    0.00 
 209   11:40   0.83   89.7    18    1.9   343     3.1   867.7    0.00 
 209   11:50   0.83   90.3    16    2.7   343     5.5   867.6    0.00 
 209   12:00   0.84   90.4    18    2.2   327     4.2   867.5    0.00 
 209   12:10   0.83   92.7    10    1.8    56     5.3   867.5    0.00 
 209   12:20   0.84   93.8    12    2.2    17     3.2   867.4    0.00 
 209   12:30   0.84   92.5    14    2.1   343     4.1   867.3    0.00 
 209   12:40   0.84   93.4    14    1.7   307     4.1   867.1    0.00 
 209   12:50   0.83   92.5    18    3.6   296     6.6   867.0    0.00 
 209   13:00   0.83   93.9    13    1.9   319     6.0   866.8    0.00 
 209   13:10   0.82   94.6    13    1.4    13     3.7   866.8    0.00 
 209   13:20   0.82   96.8    10    2.0   197     5.0   866.6    0.00 
 209   13:30   0.81   97.6    11    2.6    83     5.3   866.3    0.00 
 209   13:40   0.80   95.0    17    4.3    24     6.9   866.2    0.00 
 209   13:50   0.78   95.1    16    4.2    52     6.1   866.1    0.00 
 209   14:00   0.76   95.0    14    1.9   348     5.2   866.1    0.00 
 209   14:10   0.76   95.0    14    5.0   304    11.0   865.9    0.00 
 209   14:20   0.74   96.9    15    4.3   283    10.0   865.8    0.00 
 209   14:30   0.73   94.2    20    4.1   316     5.7   865.8    0.00 
 209   14:40   0.71   94.5    16    7.1   290    16.6   865.6    0.00 
 209   14:50   0.69   93.8    17    9.8   288    15.5   865.6    0.00 
 209   15:00   0.67   93.1    17    9.7   300    16.1   865.6    0.00 
 209   15:10   0.65   93.4    16    8.2   300    13.8   865.5    0.00 
 209   15:20   0.62   93.7    16   11.3   281    17.9   865.5    0.00 
 209   15:30   0.60   95.8    14   13.5   276    21.5   865.5    0.00 
 209   15:40   0.57   93.4    15   13.3   282    20.0   865.5    0.00 
 209   15:50   0.55   93.5    15   13.7   281    20.8   865.6    0.00 
 209   16:00   0.53   92.6    17   11.5   288    19.6   865.5    0.00 
 209   16:10   0.50   93.5    15   13.4   280    20.3   865.5    0.00 
 209   16:20   0.47   92.8    16   12.7   284    17.0   865.5    0.00 
 209   16:30   0.45   93.3    15   12.6   277    19.1   865.6    0.00 
 209   16:40   0.42   94.5    14   12.2   273    19.6   865.6    0.00 
 209   16:50   0.39   93.6    14   12.9   272    21.1   865.6    0.00 
 209   17:00   0.36   93.1    14   13.9   272    21.1   865.6    0.00 
 209   17:10   0.34   93.5    14   12.9   274    19.3   865.6    0.00 
 209   17:20   0.31   92.8    14   12.7   274    19.3   865.6    0.00 
 209   17:30   0.28   92.8    14   13.6   273    18.3   865.6    0.00 
 209   17:40   0.25   92.5    14   12.1   271    19.0   865.7    0.00 
 209   17:50   0.22   91.9    15   12.7   276    21.5   865.7    0.00 
 209   18:00   0.20   91.6    14   11.9   269    19.2   865.9    0.00 
 209   18:10   0.17   92.1    14   11.9   268    17.1   866.0    0.00 
 209   18:20   0.14   91.1    15   10.0   271    17.5   866.1    0.00 
 209   18:30   0.12   91.4    14   11.2   267    17.5   866.2    0.00 
 209   18:40   0.10   89.2    17    9.7   278    15.7   866.2    0.00 
 209   18:50   0.07   87.9    18    7.4   276    11.6   866.4    0.00 
 209   19:00   0.05   88.5    16    8.9   273    14.0   866.5    0.00 
 209   19:10   0.01   88.1    18    6.0   272    12.6   866.7    0.00 
 209   19:20   0.01   85.9    20    4.0   285     7.7   866.8    0.00 
 209   19:30   0.00   84.8    22    2.8   299     6.6   866.9    0.00 
 209   19:40   0.00   82.2    24    1.4   100     2.9   867.0    0.00 
 209   19:50   0.00   80.8    26    1.8     8     4.1   867.1    0.00 
 209   20:00   0.00   78.6    30    5.4   337     9.1   867.3    0.00 
 209   20:10   0.00   80.2    27    7.4   332    10.9   867.3    0.00 
 209   20:20   0.00   79.8    28    8.4   339    15.3   867.3    0.00 
 209   20:30   0.00   80.9    26    7.3   336    15.1   867.5    0.00 
 209   20:40   0.00   81.0    26    6.9   332    12.0   867.6    0.00 
 209   20:50   0.00   80.6    26    5.9   350    12.7   867.8    0.00 
 209   21:00   0.00   79.0    28    5.0   343     9.0   867.8    0.00 
 209   21:10   0.00   78.5    28    6.4   336    10.4   867.8    0.00 
 209   21:20   0.00   79.0    27    4.3     4     8.4   867.9    0.00 
 209   21:30   0.00   77.4    29    3.3    33     5.2   867.9    0.00 
 209   21:40   0.00   76.3    32    1.4    48     3.9   867.9    0.00 
 209   21:50   0.00   74.1    33    1.5    90     3.1   867.9    0.00 
 209   22:00   0.00   74.5    30    2.7   182     4.2   867.9    0.00 
 209   22:10   0.00   77.7    25    2.0   104     3.8   867.9    0.00 
 209   22:20   0.00   77.6    27    3.4    81     4.8   868.0    0.00 
 209   22:30   0.00   74.8    31    3.7    64     5.9   868.1    0.00 
 209   22:40   0.00   74.5    33    2.1    43     3.1   868.2    0.00 
 209   22:50   0.00   71.7    39    1.2   328     2.4   868.2    0.00 
 209   23:00   0.00   71.6    38    1.5   232     4.1   868.2    0.00 
 209   23:10   0.00   67.8    40    2.3   188     3.7   868.2    0.00 
 209   23:20   0.00   67.9    40    2.9   136     3.9   868.1    0.00 
 209   23:30   0.00   67.5    45    3.1   164     4.2   868.0    0.00 
 209   23:40   0.00   67.4    45    3.1   165     4.6   867.9    0.00 
 209   23:50   0.00   66.1    48    2.4   157     5.4   867.8    0.00 
 210    0:00   0.00   66.5    45    1.3   186     4.1   867.7    0.00 
 210    0:10   0.00   67.5    42    2.1   158     4.0   867.6    0.00 
 210    0:20   0.00   65.8    45    1.1   198     2.5   867.7    0.00 
 210    0:30   0.00   65.5    50    2.8    82     4.5   867.7    0.00 
 210    0:40   0.00   66.7    45    2.6   100     4.5   867.8    0.00 
 210    0:50   0.00   65.4    51    1.8   234     2.9   867.7    0.00 
 210    1:00   0.00   62.5    59    1.5   178     3.4   867.8    0.00 
 210    1:10   0.00   62.0    53    2.7   166     3.1   867.8    0.00 
 210    1:20   0.00   62.7    52    3.6   164     4.2   867.8    0.00 
 210    1:30   0.00   63.1    51    3.3   151     4.1   867.8    0.00 
 210    1:40   0.00   62.0    53    1.2   170     3.1   867.9    0.00 
 210    1:50   0.00   63.7    50    1.1   186     2.6   867.9    0.00 
 210    2:00   0.00   63.6    51    1.3   174     2.2   867.9    0.00 
 210    2:10   0.00   62.4    56    1.8   224     3.1   867.9    0.00 
 210    2:20   0.00   63.5    52    2.1   274     3.5   867.9    0.00 
 210    2:30   0.00   65.1    50    2.3    18     4.4   868.0    0.00 
 210    2:40   0.00   63.9    53    1.2   346     1.7   868.0    0.00 
 210    2:50   0.00   62.5    58    0.4   336     1.6   868.0    0.00 
 210    3:00   0.00   60.7    62    1.0   100     3.0   868.0    0.00 
 210    3:10   0.00   58.8    65    0.9    65     2.1   868.1    0.00 
 210    3:20   0.00   61.0    57    0.9   211     2.0   868.0    0.00 
 210    3:30   0.00   58.8    63    1.0   206     1.9   868.1    0.00 
 210    3:40   0.00   57.4    65    1.8   154     3.1   868.1    0.00 
 210    3:50   0.00   57.4    67    0.7   122     2.4   868.1    0.00 
 210    4:00   0.00   59.0    62    0.4   124     1.0   868.1    0.00 
 210    4:10   0.00   61.1    57    1.2   241     2.6   868.1    0.00 
 210    4:20   0.00   59.4    66    1.0   354     3.4   868.1    0.00 
 210    4:30   0.00   57.7    70    0.4   232     4.0   868.2    0.00 
 210    4:40   0.00   58.2    70    0.2   240     0.7   868.2    0.00 
 210    4:50   0.00   58.0    72    0.1   187     0.7   868.2    0.00 
 210    5:00   0.00   58.4    65    2.1   110     3.7   868.3    0.00 
 210    5:10   0.01   57.8    65    2.1   100     3.7   868.4    0.00 
 210    5:20   0.01   58.5    62    1.1   204     2.3   868.4    0.00 
 210    5:30   0.04   56.7    69    0.8   223     1.2   868.4    0.00 
 210    5:40   0.05   57.9    65    1.5   203     2.2   868.5    0.00 
 210    5:50   0.07   59.3    64    0.4   200     1.6   868.6    0.00 
 210    6:00   0.09   60.6    67    0.8   129     2.0   868.7    0.00 
 210    6:10   0.11   61.1    68    1.4    91     2.3   868.7    0.00 
 210    6:20   0.14   64.2    58    0.0   100     0.5   868.8    0.00 
 210    6:30   0.16   66.0    57    0.0     0     0.0   868.8    0.00 
 210    6:40   0.19   67.9    58    0.7    85     1.8   868.8    0.00 
 210    6:50   0.21   69.3    56    1.0    30     1.5   868.9    0.00 
 210    7:00   0.24   68.8    61    0.6   352     1.3   869.0    0.00 
 210    7:10   0.27   72.2    45    0.0     0     0.6   869.1    0.00 
 210    7:20   0.29   74.8    42    0.1     0     1.0   869.3    0.00 
 210    7:30   0.32   76.2    37    0.6    40     1.7   869.4    0.00 
 210    7:40   0.34   76.9    38    0.8    60     1.9   869.4    0.00 
 210    7:50   0.37   78.2    35    0.3    36     1.5   869.5    0.00 
 210    8:00   0.40   78.8    34    0.6    61     1.8   869.5    0.00 
 210    8:10   0.42   79.3    34    0.4    38     2.3   869.5    0.00 
 210    8:20   0.45   79.0    36    0.2   356     0.8   869.4    0.00 
 210    8:30   0.47   78.6    30    0.8     1     2.0   869.4    0.00 
 210    8:40   0.50   82.2    30    0.3    69     1.3   869.3    0.00 
 210    8:50   0.52   82.9    26    0.9    65     2.0   869.3    0.00 
 210    9:00   0.55   80.9    32    1.4     4     2.4   869.1    0.00 
 210    9:10   0.57   81.3    34    1.1    16     3.1   869.1    0.00 
 210    9:20   0.59   81.5    33    0.8   342     2.0   869.0    0.00 
 210    9:30   0.60   82.2    33    1.3   348     2.2   869.0    0.00 
 210    9:40   0.62   83.0    28    1.3     1     2.5   868.9    0.00 
 210    9:50   0.65   85.9    26    0.8    58     2.1   868.8    0.00 
 210   10:00   0.66   87.4    25    0.7    47     2.0   868.8    0.00 
 210   10:10   0.69   87.3    22    0.7     5     1.8   868.6    0.00 
 210   10:20   0.70   87.9    23    0.6    10     2.1   868.6    0.00 

Return to Sparks, Nevada, UNR Ag Experiment Farm graphs page.


Western Regional Climate Center,wrcc@dri.edu